sensor_id;sensor_type;location;lat;lon;timestamp;P1;durP1;ratioP1;P2;durP2;ratioP2
15482;SDS011;7843;50.330;7.312;2024-02-26T00:02:11;7.60;;;0.75;;
15482;SDS011;7843;50.330;7.312;2024-02-26T00:04:38;1.23;;;0.57;;
15482;SDS011;7843;50.330;7.312;2024-02-26T00:07:05;0.63;;;0.50;;
15482;SDS011;7843;50.330;7.312;2024-02-26T00:09:32;0.50;;;0.20;;
15482;SDS011;7843;50.330;7.312;2024-02-26T00:12:02;6.07;;;0.70;;
15482;SDS011;7843;50.330;7.312;2024-02-26T00:14:30;0.40;;;0.40;;
15482;SDS011;7843;50.330;7.312;2024-02-26T00:16:57;0.50;;;0.35;;
15482;SDS011;7843;50.330;7.312;2024-02-26T00:19:26;0.95;;;0.60;;
15482;SDS011;7843;50.330;7.312;2024-02-26T00:21:52;1.40;;;0.50;;
15482;SDS011;7843;50.330;7.312;2024-02-26T00:24:21;0.47;;;0.40;;
15482;SDS011;7843;50.330;7.312;2024-02-26T00:26:48;3.10;;;0.40;;
15482;SDS011;7843;50.330;7.312;2024-02-26T00:29:19;0.30;;;0.30;;
15482;SDS011;7843;50.330;7.312;2024-02-26T00:31:46;0.70;;;0.70;;
15482;SDS011;7843;50.330;7.312;2024-02-26T00:34:12;0.60;;;0.57;;
15482;SDS011;7843;50.330;7.312;2024-02-26T00:36:39;0.70;;;0.70;;
15482;SDS011;7843;50.330;7.312;2024-02-26T00:39:06;0.60;;;0.50;;
15482;SDS011;7843;50.330;7.312;2024-02-26T00:41:32;0.60;;;0.43;;
15482;SDS011;7843;50.330;7.312;2024-02-26T00:43:59;0.32;;;0.32;;
15482;SDS011;7843;50.330;7.312;2024-02-26T00:46:26;0.60;;;0.50;;
15482;SDS011;7843;50.330;7.312;2024-02-26T00:48:53;1.50;;;0.98;;
15482;SDS011;7843;50.330;7.312;2024-02-26T00:51:19;0.93;;;0.55;;
15482;SDS011;7843;50.330;7.312;2024-02-26T00:53:48;0.55;;;0.50;;
15482;SDS011;7843;50.330;7.312;2024-02-26T00:56:14;0.50;;;0.40;;
15482;SDS011;7843;50.330;7.312;2024-02-26T00:58:41;0.98;;;0.38;;
15482;SDS011;7843;50.330;7.312;2024-02-26T01:01:08;0.50;;;0.50;;
15482;SDS011;7843;50.330;7.312;2024-02-26T01:03:35;0.47;;;0.47;;
15482;SDS011;7843;50.330;7.312;2024-02-26T01:06:02;2.40;;;1.15;;
15482;SDS011;7843;50.330;7.312;2024-02-26T01:08:29;0.70;;;0.40;;
15482;SDS011;7843;50.330;7.312;2024-02-26T01:10:56;0.83;;;0.43;;
15482;SDS011;7843;50.330;7.312;2024-02-26T01:13:22;0.60;;;0.50;;
15482;SDS011;7843;50.330;7.312;2024-02-26T01:15:52;0.40;;;0.40;;
15482;SDS011;7843;50.330;7.312;2024-02-26T01:18:19;0.30;;;0.28;;
15482;SDS011;7843;50.330;7.312;2024-02-26T01:20:46;0.45;;;0.40;;
15482;SDS011;7843;50.330;7.312;2024-02-26T01:23:14;0.30;;;0.30;;
15482;SDS011;7843;50.330;7.312;2024-02-26T01:25:40;1.40;;;0.55;;
15482;SDS011;7843;50.330;7.312;2024-02-26T01:28:08;0.70;;;0.30;;
15482;SDS011;7843;50.330;7.312;2024-02-26T01:30:35;0.70;;;0.60;;
15482;SDS011;7843;50.330;7.312;2024-02-26T01:33:03;0.30;;;0.30;;
15482;SDS011;7843;50.330;7.312;2024-02-26T01:35:30;0.32;;;0.30;;
15482;SDS011;7843;50.330;7.312;2024-02-26T01:37:57;0.50;;;0.30;;
15482;SDS011;7843;50.330;7.312;2024-02-26T01:40:27;0.88;;;0.40;;
15482;SDS011;7843;50.330;7.312;2024-02-26T01:42:54;0.65;;;0.65;;
15482;SDS011;7843;50.330;7.312;2024-02-26T01:45:21;1.07;;;0.60;;
15482;SDS011;7843;50.330;7.312;2024-02-26T01:47:51;0.30;;;0.30;;
15482;SDS011;7843;50.330;7.312;2024-02-26T01:50:18;0.60;;;0.50;;
15482;SDS011;7843;50.330;7.312;2024-02-26T01:52:46;0.90;;;0.65;;
15482;SDS011;7843;50.330;7.312;2024-02-26T01:55:13;0.40;;;0.40;;
15482;SDS011;7843;50.330;7.312;2024-02-26T01:57:44;0.85;;;0.40;;
15482;SDS011;7843;50.330;7.312;2024-02-26T02:00:14;1.73;;;1.13;;
15482;SDS011;7843;50.330;7.312;2024-02-26T02:02:41;2.75;;;1.58;;
15482;SDS011;7843;50.330;7.312;2024-02-26T02:05:08;0.75;;;0.55;;
15482;SDS011;7843;50.330;7.312;2024-02-26T02:07:35;0.52;;;0.52;;
15482;SDS011;7843;50.330;7.312;2024-02-26T02:10:02;0.50;;;0.40;;
15482;SDS011;7843;50.330;7.312;2024-02-26T02:12:32;0.70;;;0.50;;
15482;SDS011;7843;50.330;7.312;2024-02-26T02:15:00;0.60;;;0.60;;
15482;SDS011;7843;50.330;7.312;2024-02-26T02:17:28;0.50;;;0.40;;
15482;SDS011;7843;50.330;7.312;2024-02-26T02:19:54;0.68;;;0.47;;
15482;SDS011;7843;50.330;7.312;2024-02-26T02:22:21;0.35;;;0.35;;
15482;SDS011;7843;50.330;7.312;2024-02-26T02:24:52;0.50;;;0.40;;
15482;SDS011;7843;50.330;7.312;2024-02-26T02:27:19;0.68;;;0.60;;
15482;SDS011;7843;50.330;7.312;2024-02-26T02:29:47;0.95;;;0.60;;
15482;SDS011;7843;50.330;7.312;2024-02-26T02:32:14;1.63;;;0.65;;
15482;SDS011;7843;50.330;7.312;2024-02-26T02:34:43;3.57;;;1.13;;
15482;SDS011;7843;50.330;7.312;2024-02-26T02:37:11;1.45;;;0.77;;
15482;SDS011;7843;50.330;7.312;2024-02-26T02:39:37;1.30;;;0.68;;
15482;SDS011;7843;50.330;7.312;2024-02-26T02:42:04;3.30;;;1.25;;
15482;SDS011;7843;50.330;7.312;2024-02-26T02:44:31;1.23;;;0.75;;
15482;SDS011;7843;50.330;7.312;2024-02-26T02:46:58;3.30;;;1.10;;
15482;SDS011;7843;50.330;7.312;2024-02-26T02:49:28;1.02;;;0.93;;
15482;SDS011;7843;50.330;7.312;2024-02-26T02:51:59;0.30;;;0.30;;
15482;SDS011;7843;50.330;7.312;2024-02-26T02:54:26;1.80;;;0.60;;
15482;SDS011;7843;50.330;7.312;2024-02-26T02:56:52;0.30;;;0.30;;
15482;SDS011;7843;50.330;7.312;2024-02-26T02:59:19;1.13;;;0.40;;
15482;SDS011;7843;50.330;7.312;2024-02-26T03:01:46;0.50;;;0.35;;
15482;SDS011;7843;50.330;7.312;2024-02-26T03:04:12;0.70;;;0.40;;
15482;SDS011;7843;50.330;7.312;2024-02-26T03:06:39;0.63;;;0.43;;
15482;SDS011;7843;50.330;7.312;2024-02-26T03:09:06;0.32;;;0.32;;
15482;SDS011;7843;50.330;7.312;2024-02-26T03:11:32;0.40;;;0.40;;
15482;SDS011;7843;50.330;7.312;2024-02-26T03:13:59;0.30;;;0.30;;
15482;SDS011;7843;50.330;7.312;2024-02-26T03:16:26;1.47;;;0.50;;
15482;SDS011;7843;50.330;7.312;2024-02-26T03:18:53;0.22;;;0.22;;
15482;SDS011;7843;50.330;7.312;2024-02-26T03:21:19;0.28;;;0.20;;
15482;SDS011;7843;50.330;7.312;2024-02-26T03:23:48;0.40;;;0.40;;
15482;SDS011;7843;50.330;7.312;2024-02-26T03:26:14;0.40;;;0.40;;
15482;SDS011;7843;50.330;7.312;2024-02-26T03:28:41;0.50;;;0.50;;
15482;SDS011;7843;50.330;7.312;2024-02-26T03:31:08;0.40;;;0.38;;
15482;SDS011;7843;50.330;7.312;2024-02-26T03:33:36;0.32;;;0.32;;
15482;SDS011;7843;50.330;7.312;2024-02-26T03:36:03;0.30;;;0.30;;
15482;SDS011;7843;50.330;7.312;2024-02-26T03:38:30;0.28;;;0.28;;
15482;SDS011;7843;50.330;7.312;2024-02-26T03:40:57;0.28;;;0.28;;
15482;SDS011;7843;50.330;7.312;2024-02-26T03:43:24;0.30;;;0.30;;
15482;SDS011;7843;50.330;7.312;2024-02-26T03:45:50;1.05;;;0.60;;
15482;SDS011;7843;50.330;7.312;2024-02-26T03:48:17;0.30;;;0.30;;
15482;SDS011;7843;50.330;7.312;2024-02-26T03:50:44;1.50;;;0.50;;
15482;SDS011;7843;50.330;7.312;2024-02-26T03:53:10;0.38;;;0.38;;
15482;SDS011;7843;50.330;7.312;2024-02-26T03:55:39;0.20;;;0.20;;
15482;SDS011;7843;50.330;7.312;2024-02-26T03:58:07;0.30;;;0.30;;
15482;SDS011;7843;50.330;7.312;2024-02-26T04:00:35;0.20;;;0.20;;
15482;SDS011;7843;50.330;7.312;2024-02-26T04:03:02;0.75;;;0.65;;
15482;SDS011;7843;50.330;7.312;2024-02-26T04:05:28;0.90;;;0.52;;
15482;SDS011;7843;50.330;7.312;2024-02-26T04:07:55;0.30;;;0.30;;
15482;SDS011;7843;50.330;7.312;2024-02-26T04:10:22;0.40;;;0.40;;
15482;SDS011;7843;50.330;7.312;2024-02-26T04:12:48;0.40;;;0.40;;
15482;SDS011;7843;50.330;7.312;2024-02-26T04:15:15;0.43;;;0.43;;
15482;SDS011;7843;50.330;7.312;2024-02-26T04:17:43;0.20;;;0.20;;
15482;SDS011;7843;50.330;7.312;2024-02-26T04:20:13;0.40;;;0.40;;
15482;SDS011;7843;50.330;7.312;2024-02-26T04:22:41;0.20;;;0.20;;
15482;SDS011;7843;50.330;7.312;2024-02-26T04:25:08;0.60;;;0.55;;
15482;SDS011;7843;50.330;7.312;2024-02-26T04:27:35;0.45;;;0.40;;
15482;SDS011;7843;50.330;7.312;2024-02-26T04:30:01;0.38;;;0.38;;
15482;SDS011;7843;50.330;7.312;2024-02-26T04:32:30;0.82;;;0.60;;
15482;SDS011;7843;50.330;7.312;2024-02-26T04:34:57;0.30;;;0.30;;
15482;SDS011;7843;50.330;7.312;2024-02-26T04:37:23;0.50;;;0.47;;
15482;SDS011;7843;50.330;7.312;2024-02-26T04:39:50;0.60;;;0.30;;
15482;SDS011;7843;50.330;7.312;2024-02-26T04:42:17;0.30;;;0.30;;
15482;SDS011;7843;50.330;7.312;2024-02-26T04:44:43;0.20;;;0.20;;
15482;SDS011;7843;50.330;7.312;2024-02-26T04:47:10;0.38;;;0.38;;
15482;SDS011;7843;50.330;7.312;2024-02-26T04:49:37;0.40;;;0.40;;
15482;SDS011;7843;50.330;7.312;2024-02-26T04:52:04;0.70;;;0.50;;
15482;SDS011;7843;50.330;7.312;2024-02-26T04:54:31;0.50;;;0.50;;
15482;SDS011;7843;50.330;7.312;2024-02-26T04:56:57;1.50;;;0.95;;
15482;SDS011;7843;50.330;7.312;2024-02-26T04:59:25;0.40;;;0.40;;
15482;SDS011;7843;50.330;7.312;2024-02-26T05:01:51;0.45;;;0.45;;
15482;SDS011;7843;50.330;7.312;2024-02-26T05:04:19;0.40;;;0.40;;
15482;SDS011;7843;50.330;7.312;2024-02-26T05:06:45;0.30;;;0.30;;
15482;SDS011;7843;50.330;7.312;2024-02-26T05:09:12;0.30;;;0.30;;
15482;SDS011;7843;50.330;7.312;2024-02-26T05:11:39;0.40;;;0.40;;
15482;SDS011;7843;50.330;7.312;2024-02-26T05:14:06;0.30;;;0.30;;
15482;SDS011;7843;50.330;7.312;2024-02-26T05:16:33;0.38;;;0.30;;
15482;SDS011;7843;50.330;7.312;2024-02-26T05:19:00;0.30;;;0.30;;
15482;SDS011;7843;50.330;7.312;2024-02-26T05:21:27;0.50;;;0.40;;
15482;SDS011;7843;50.330;7.312;2024-02-26T05:23:54;0.40;;;0.40;;
15482;SDS011;7843;50.330;7.312;2024-02-26T05:26:21;1.38;;;0.43;;
15482;SDS011;7843;50.330;7.312;2024-02-26T05:28:48;1.10;;;0.57;;
15482;SDS011;7843;50.330;7.312;2024-02-26T05:31:16;0.80;;;0.30;;
15482;SDS011;7843;50.330;7.312;2024-02-26T05:33:44;0.30;;;0.22;;
15482;SDS011;7843;50.330;7.312;2024-02-26T05:36:17;0.40;;;0.30;;
15482;SDS011;7843;50.330;7.312;2024-02-26T05:38:44;0.20;;;0.20;;
15482;SDS011;7843;50.330;7.312;2024-02-26T05:41:12;0.40;;;0.40;;
15482;SDS011;7843;50.330;7.312;2024-02-26T05:43:40;1.90;;;0.50;;
15482;SDS011;7843;50.330;7.312;2024-02-26T05:46:07;1.70;;;0.50;;
15482;SDS011;7843;50.330;7.312;2024-02-26T05:48:34;0.20;;;0.20;;
15482;SDS011;7843;50.330;7.312;2024-02-26T05:51:01;1.40;;;0.43;;
15482;SDS011;7843;50.330;7.312;2024-02-26T05:53:27;0.20;;;0.20;;
15482;SDS011;7843;50.330;7.312;2024-02-26T05:55:54;0.60;;;0.43;;
15482;SDS011;7843;50.330;7.312;2024-02-26T05:58:21;0.40;;;0.40;;
15482;SDS011;7843;50.330;7.312;2024-02-26T06:00:48;4.13;;;0.60;;
15482;SDS011;7843;50.330;7.312;2024-02-26T06:03:15;0.40;;;0.40;;
15482;SDS011;7843;50.330;7.312;2024-02-26T06:05:42;0.90;;;0.85;;
15482;SDS011;7843;50.330;7.312;2024-02-26T06:08:09;0.30;;;0.30;;
15482;SDS011;7843;50.330;7.312;2024-02-26T06:10:36;0.60;;;0.60;;
15482;SDS011;7843;50.330;7.312;2024-02-26T06:13:02;0.40;;;0.40;;
15482;SDS011;7843;50.330;7.312;2024-02-26T06:15:29;0.60;;;0.40;;
15482;SDS011;7843;50.330;7.312;2024-02-26T06:17:56;0.47;;;0.47;;
15482;SDS011;7843;50.330;7.312;2024-02-26T06:20:23;2.17;;;1.38;;
15482;SDS011;7843;50.330;7.312;2024-02-26T06:22:50;0.45;;;0.38;;
15482;SDS011;7843;50.330;7.312;2024-02-26T06:25:17;0.50;;;0.50;;
15482;SDS011;7843;50.330;7.312;2024-02-26T06:27:44;1.00;;;0.70;;
15482;SDS011;7843;50.330;7.312;2024-02-26T06:30:10;0.30;;;0.30;;
15482;SDS011;7843;50.330;7.312;2024-02-26T06:32:37;0.45;;;0.45;;
15482;SDS011;7843;50.330;7.312;2024-02-26T06:35:04;0.30;;;0.30;;
15482;SDS011;7843;50.330;7.312;2024-02-26T06:37:34;1.02;;;0.57;;
15482;SDS011;7843;50.330;7.312;2024-02-26T06:40:01;0.47;;;0.40;;
15482;SDS011;7843;50.330;7.312;2024-02-26T06:42:32;0.82;;;0.40;;
15482;SDS011;7843;50.330;7.312;2024-02-26T06:44:59;0.93;;;0.80;;
15482;SDS011;7843;50.330;7.312;2024-02-26T06:47:26;0.50;;;0.50;;
15482;SDS011;7843;50.330;7.312;2024-02-26T06:49:53;0.65;;;0.65;;
15482;SDS011;7843;50.330;7.312;2024-02-26T06:52:21;0.40;;;0.40;;
15482;SDS011;7843;50.330;7.312;2024-02-26T06:54:47;1.48;;;0.90;;
15482;SDS011;7843;50.330;7.312;2024-02-26T06:57:17;2.47;;;0.95;;
15482;SDS011;7843;50.330;7.312;2024-02-26T06:59:43;2.53;;;1.13;;
15482;SDS011;7843;50.330;7.312;2024-02-26T07:02:13;0.32;;;0.30;;
15482;SDS011;7843;50.330;7.312;2024-02-26T07:04:40;0.70;;;0.70;;
15482;SDS011;7843;50.330;7.312;2024-02-26T07:07:07;0.70;;;0.70;;
15482;SDS011;7843;50.330;7.312;2024-02-26T07:09:34;0.50;;;0.50;;
15482;SDS011;7843;50.330;7.312;2024-02-26T07:12:01;0.40;;;0.40;;
15482;SDS011;7843;50.330;7.312;2024-02-26T07:14:28;2.03;;;0.70;;
15482;SDS011;7843;50.330;7.312;2024-02-26T07:16:55;0.98;;;0.90;;
15482;SDS011;7843;50.330;7.312;2024-02-26T07:19:22;0.30;;;0.30;;
15482;SDS011;7843;50.330;7.312;2024-02-26T07:21:49;1.00;;;0.90;;
15482;SDS011;7843;50.330;7.312;2024-02-26T07:24:16;0.50;;;0.50;;
15482;SDS011;7843;50.330;7.312;2024-02-26T07:26:42;0.85;;;0.77;;
15482;SDS011;7843;50.330;7.312;2024-02-26T07:29:09;0.60;;;0.60;;
15482;SDS011;7843;50.330;7.312;2024-02-26T07:31:36;2.17;;;0.80;;
15482;SDS011;7843;50.330;7.312;2024-02-26T07:34:02;0.40;;;0.40;;
15482;SDS011;7843;50.330;7.312;2024-02-26T07:36:29;0.80;;;0.50;;
15482;SDS011;7843;50.330;7.312;2024-02-26T07:38:56;0.30;;;0.30;;
15482;SDS011;7843;50.330;7.312;2024-02-26T07:41:23;0.68;;;0.38;;
15482;SDS011;7843;50.330;7.312;2024-02-26T07:43:49;0.30;;;0.30;;
15482;SDS011;7843;50.330;7.312;2024-02-26T07:46:16;2.25;;;0.80;;
15482;SDS011;7843;50.330;7.312;2024-02-26T07:48:43;0.70;;;0.63;;
15482;SDS011;7843;50.330;7.312;2024-02-26T07:51:12;0.90;;;0.75;;
15482;SDS011;7843;50.330;7.312;2024-02-26T07:53:40;0.50;;;0.50;;
15482;SDS011;7843;50.330;7.312;2024-02-26T07:56:07;0.40;;;0.40;;
15482;SDS011;7843;50.330;7.312;2024-02-26T07:58:34;0.70;;;0.60;;
15482;SDS011;7843;50.330;7.312;2024-02-26T08:01:01;1.10;;;0.40;;
15482;SDS011;7843;50.330;7.312;2024-02-26T08:03:28;1.00;;;0.50;;
15482;SDS011;7843;50.330;7.312;2024-02-26T08:05:54;0.45;;;0.35;;
15482;SDS011;7843;50.330;7.312;2024-02-26T08:08:21;0.85;;;0.63;;
15482;SDS011;7843;50.330;7.312;2024-02-26T08:10:48;1.42;;;0.52;;
15482;SDS011;7843;50.330;7.312;2024-02-26T08:13:14;0.43;;;0.43;;
15482;SDS011;7843;50.330;7.312;2024-02-26T08:15:41;0.32;;;0.32;;
15482;SDS011;7843;50.330;7.312;2024-02-26T08:18:08;0.40;;;0.40;;
15482;SDS011;7843;50.330;7.312;2024-02-26T08:20:35;0.90;;;0.70;;
15482;SDS011;7843;50.330;7.312;2024-02-26T08:23:01;0.60;;;0.50;;
15482;SDS011;7843;50.330;7.312;2024-02-26T08:25:28;0.75;;;0.70;;
15482;SDS011;7843;50.330;7.312;2024-02-26T08:27:55;0.77;;;0.50;;
15482;SDS011;7843;50.330;7.312;2024-02-26T08:30:22;0.70;;;0.60;;
15482;SDS011;7843;50.330;7.312;2024-02-26T08:32:52;0.40;;;0.40;;
15482;SDS011;7843;50.330;7.312;2024-02-26T08:35:19;0.60;;;0.60;;
15482;SDS011;7843;50.330;7.312;2024-02-26T08:37:47;1.90;;;0.70;;
15482;SDS011;7843;50.330;7.312;2024-02-26T08:40:14;1.23;;;0.50;;
15482;SDS011;7843;50.330;7.312;2024-02-26T08:42:41;0.55;;;0.52;;
15482;SDS011;7843;50.330;7.312;2024-02-26T08:45:08;1.50;;;0.80;;
15482;SDS011;7843;50.330;7.312;2024-02-26T08:47:35;0.63;;;0.53;;
15482;SDS011;7843;50.330;7.312;2024-02-26T08:50:02;0.93;;;0.73;;
15482;SDS011;7843;50.330;7.312;2024-02-26T08:52:29;1.13;;;0.57;;
15482;SDS011;7843;50.330;7.312;2024-02-26T08:54:56;0.40;;;0.40;;
15482;SDS011;7843;50.330;7.312;2024-02-26T08:57:23;1.30;;;0.80;;
15482;SDS011;7843;50.330;7.312;2024-02-26T08:59:50;1.20;;;0.70;;
15482;SDS011;7843;50.330;7.312;2024-02-26T09:02:17;0.52;;;0.52;;
15482;SDS011;7843;50.330;7.312;2024-02-26T09:04:45;1.05;;;0.75;;
15482;SDS011;7843;50.330;7.312;2024-02-26T09:07:12;1.17;;;0.57;;
15482;SDS011;7843;50.330;7.312;2024-02-26T09:09:39;0.35;;;0.35;;
15482;SDS011;7843;50.330;7.312;2024-02-26T09:12:06;1.45;;;0.85;;
15482;SDS011;7843;50.330;7.312;2024-02-26T09:14:33;0.40;;;0.40;;
15482;SDS011;7843;50.330;7.312;2024-02-26T09:16:59;4.65;;;0.73;;
15482;SDS011;7843;50.330;7.312;2024-02-26T09:19:26;1.17;;;0.77;;
15482;SDS011;7843;50.330;7.312;2024-02-26T09:21:53;2.75;;;0.95;;
15482;SDS011;7843;50.330;7.312;2024-02-26T09:24:24;2.50;;;1.15;;
15482;SDS011;7843;50.330;7.312;2024-02-26T09:26:51;1.25;;;0.85;;
15482;SDS011;7843;50.330;7.312;2024-02-26T09:29:17;1.30;;;1.00;;
15482;SDS011;7843;50.330;7.312;2024-02-26T09:31:44;1.83;;;1.47;;
15482;SDS011;7843;50.330;7.312;2024-02-26T09:34:13;0.90;;;0.50;;
15482;SDS011;7843;50.330;7.312;2024-02-26T09:36:40;0.50;;;0.50;;
15482;SDS011;7843;50.330;7.312;2024-02-26T09:39:07;0.90;;;0.55;;
15482;SDS011;7843;50.330;7.312;2024-02-26T09:41:37;1.00;;;0.82;;
15482;SDS011;7843;50.330;7.312;2024-02-26T09:44:05;0.80;;;0.60;;
15482;SDS011;7843;50.330;7.312;2024-02-26T09:46:31;1.23;;;0.55;;
15482;SDS011;7843;50.330;7.312;2024-02-26T09:48:59;0.73;;;0.50;;
15482;SDS011;7843;50.330;7.312;2024-02-26T09:51:26;1.80;;;1.20;;
15482;SDS011;7843;50.330;7.312;2024-02-26T09:53:53;1.75;;;0.85;;
15482;SDS011;7843;50.330;7.312;2024-02-26T09:56:19;0.95;;;0.80;;
15482;SDS011;7843;50.330;7.312;2024-02-26T09:58:47;0.40;;;0.40;;
15482;SDS011;7843;50.330;7.312;2024-02-26T10:01:20;0.30;;;0.30;;
15482;SDS011;7843;50.330;7.312;2024-02-26T10:03:48;2.70;;;0.90;;
15482;SDS011;7843;50.330;7.312;2024-02-26T10:06:21;0.95;;;0.60;;
15482;SDS011;7843;50.330;7.312;2024-02-26T10:08:48;0.90;;;0.70;;
15482;SDS011;7843;50.330;7.312;2024-02-26T10:11:15;0.43;;;0.43;;
15482;SDS011;7843;50.330;7.312;2024-02-26T10:13:43;1.17;;;0.80;;
15482;SDS011;7843;50.330;7.312;2024-02-26T10:16:09;0.85;;;0.68;;
15482;SDS011;7843;50.330;7.312;2024-02-26T10:18:49;6.07;;;0.90;;
15482;SDS011;7843;50.330;7.312;2024-02-26T10:21:21;0.73;;;0.73;;
15482;SDS011;7843;50.330;7.312;2024-02-26T10:23:49;1.42;;;0.70;;
15482;SDS011;7843;50.330;7.312;2024-02-26T10:26:19;0.68;;;0.60;;
15482;SDS011;7843;50.330;7.312;2024-02-26T10:28:46;0.82;;;0.70;;
15482;SDS011;7843;50.330;7.312;2024-02-26T10:31:14;0.52;;;0.52;;
15482;SDS011;7843;50.330;7.312;2024-02-26T10:33:42;0.83;;;0.70;;
15482;SDS011;7843;50.330;7.312;2024-02-26T10:36:09;1.50;;;0.70;;
15482;SDS011;7843;50.330;7.312;2024-02-26T10:38:37;2.20;;;0.60;;
15482;SDS011;7843;50.330;7.312;2024-02-26T10:41:04;1.70;;;0.60;;
15482;SDS011;7843;50.330;7.312;2024-02-26T10:43:33;4.13;;;0.90;;
15482;SDS011;7843;50.330;7.312;2024-02-26T10:45:59;2.17;;;0.80;;
15482;SDS011;7843;50.330;7.312;2024-02-26T10:48:26;0.80;;;0.80;;
15482;SDS011;7843;50.330;7.312;2024-02-26T10:50:53;0.70;;;0.70;;
15482;SDS011;7843;50.330;7.312;2024-02-26T10:53:22;1.30;;;0.73;;
15482;SDS011;7843;50.330;7.312;2024-02-26T10:55:52;0.85;;;0.65;;
15482;SDS011;7843;50.330;7.312;2024-02-26T10:58:23;0.70;;;0.68;;
15482;SDS011;7843;50.330;7.312;2024-02-26T11:00:51;1.63;;;0.87;;
15482;SDS011;7843;50.330;7.312;2024-02-26T11:03:19;0.60;;;0.60;;
15482;SDS011;7843;50.330;7.312;2024-02-26T11:05:50;0.88;;;0.65;;
15482;SDS011;7843;50.330;7.312;2024-02-26T11:08:20;0.90;;;0.60;;
15482;SDS011;7843;50.330;7.312;2024-02-26T11:10:48;1.42;;;0.88;;
15482;SDS011;7843;50.330;7.312;2024-02-26T11:13:19;1.30;;;0.70;;
15482;SDS011;7843;50.330;7.312;2024-02-26T11:15:47;1.25;;;0.70;;
15482;SDS011;7843;50.330;7.312;2024-02-26T11:18:15;1.20;;;0.65;;
15482;SDS011;7843;50.330;7.312;2024-02-26T11:20:45;0.50;;;0.40;;
15482;SDS011;7843;50.330;7.312;2024-02-26T11:23:14;0.80;;;0.70;;
15482;SDS011;7843;50.330;7.312;2024-02-26T11:25:41;1.58;;;1.08;;
15482;SDS011;7843;50.330;7.312;2024-02-26T11:28:12;2.38;;;0.85;;
15482;SDS011;7843;50.330;7.312;2024-02-26T11:30:43;1.02;;;0.57;;
15482;SDS011;7843;50.330;7.312;2024-02-26T11:33:12;0.45;;;0.40;;
15482;SDS011;7843;50.330;7.312;2024-02-26T11:35:41;1.02;;;0.90;;
15482;SDS011;7843;50.330;7.312;2024-02-26T11:38:08;0.45;;;0.45;;
15482;SDS011;7843;50.330;7.312;2024-02-26T11:40:44;0.90;;;0.77;;
15482;SDS011;7843;50.330;7.312;2024-02-26T11:43:11;0.68;;;0.68;;
15482;SDS011;7843;50.330;7.312;2024-02-26T11:48:16;0.73;;;0.65;;
15482;SDS011;7843;50.330;7.312;2024-02-26T11:50:47;0.85;;;0.70;;
15482;SDS011;7843;50.330;7.312;2024-02-26T11:53:22;0.55;;;0.50;;
15482;SDS011;7843;50.330;7.312;2024-02-26T11:58:45;1.20;;;0.50;;
15482;SDS011;7843;50.330;7.312;2024-02-26T12:04:06;0.95;;;0.88;;
15482;SDS011;7843;50.330;7.312;2024-02-26T12:06:40;0.70;;;0.70;;
15482;SDS011;7843;50.330;7.312;2024-02-26T12:09:11;2.40;;;1.10;;
15482;SDS011;7843;50.330;7.312;2024-02-26T12:11:40;1.63;;;0.95;;
15482;SDS011;7843;50.330;7.312;2024-02-26T12:14:08;0.82;;;0.73;;
15482;SDS011;7843;50.330;7.312;2024-02-26T12:16:36;0.95;;;0.82;;
15482;SDS011;7843;50.330;7.312;2024-02-26T12:19:08;0.85;;;0.60;;
15482;SDS011;7843;50.330;7.312;2024-02-26T12:21:36;1.15;;;0.70;;
15482;SDS011;7843;50.330;7.312;2024-02-26T12:24:08;1.25;;;0.98;;
15482;SDS011;7843;50.330;7.312;2024-02-26T12:26:40;1.20;;;1.00;;
15482;SDS011;7843;50.330;7.312;2024-02-26T12:29:07;1.20;;;1.08;;
15482;SDS011;7843;50.330;7.312;2024-02-26T12:31:34;2.00;;;1.00;;
15482;SDS011;7843;50.330;7.312;2024-02-26T12:34:03;1.55;;;1.25;;
15482;SDS011;7843;50.330;7.312;2024-02-26T12:36:31;1.05;;;0.77;;
15482;SDS011;7843;50.330;7.312;2024-02-26T12:39:01;3.47;;;1.67;;
15482;SDS011;7843;50.330;7.312;2024-02-26T12:41:29;1.67;;;1.58;;
15482;SDS011;7843;50.330;7.312;2024-02-26T12:43:57;1.65;;;1.33;;
15482;SDS011;7843;50.330;7.312;2024-02-26T12:46:24;2.83;;;1.63;;
15482;SDS011;7843;50.330;7.312;2024-02-26T12:48:51;1.70;;;1.10;;
15482;SDS011;7843;50.330;7.312;2024-02-26T12:51:18;2.20;;;1.48;;
15482;SDS011;7843;50.330;7.312;2024-02-26T12:53:45;1.95;;;1.05;;
15482;SDS011;7843;50.330;7.312;2024-02-26T12:56:13;1.60;;;1.05;;
15482;SDS011;7843;50.330;7.312;2024-02-26T12:58:40;1.85;;;0.70;;
15482;SDS011;7843;50.330;7.312;2024-02-26T13:01:07;1.10;;;0.98;;
15482;SDS011;7843;50.330;7.312;2024-02-26T13:03:43;1.65;;;0.95;;
15482;SDS011;7843;50.330;7.312;2024-02-26T13:06:10;1.25;;;0.93;;
15482;SDS011;7843;50.330;7.312;2024-02-26T13:08:37;2.38;;;1.48;;
15482;SDS011;7843;50.330;7.312;2024-02-26T13:11:04;1.17;;;1.08;;
15482;SDS011;7843;50.330;7.312;2024-02-26T13:13:31;2.13;;;1.23;;
15482;SDS011;7843;50.330;7.312;2024-02-26T13:16:01;4.37;;;2.10;;
15482;SDS011;7843;50.330;7.312;2024-02-26T13:18:30;1.52;;;1.25;;
15482;SDS011;7843;50.330;7.312;2024-02-26T13:21:07;3.15;;;1.23;;
15482;SDS011;7843;50.330;7.312;2024-02-26T13:23:34;1.73;;;1.37;;
15482;SDS011;7843;50.330;7.312;2024-02-26T13:26:01;1.17;;;0.98;;
15482;SDS011;7843;50.330;7.312;2024-02-26T13:28:28;1.33;;;0.82;;
15482;SDS011;7843;50.330;7.312;2024-02-26T13:30:55;1.07;;;0.90;;
15482;SDS011;7843;50.330;7.312;2024-02-26T13:33:24;2.17;;;0.95;;
15482;SDS011;7843;50.330;7.312;2024-02-26T13:35:51;1.08;;;0.98;;
15482;SDS011;7843;50.330;7.312;2024-02-26T13:38:19;2.63;;;1.30;;
15482;SDS011;7843;50.330;7.312;2024-02-26T13:40:45;1.25;;;0.90;;
15482;SDS011;7843;50.330;7.312;2024-02-26T13:43:12;0.90;;;0.90;;
15482;SDS011;7843;50.330;7.312;2024-02-26T13:45:39;3.45;;;1.50;;
15482;SDS011;7843;50.330;7.312;2024-02-26T13:48:07;1.30;;;0.93;;
15482;SDS011;7843;50.330;7.312;2024-02-26T13:50:36;1.02;;;0.90;;
15482;SDS011;7843;50.330;7.312;2024-02-26T13:53:03;1.85;;;1.08;;
15482;SDS011;7843;50.330;7.312;2024-02-26T13:55:30;1.55;;;1.15;;
15482;SDS011;7843;50.330;7.312;2024-02-26T13:57:58;1.42;;;1.25;;
15482;SDS011;7843;50.330;7.312;2024-02-26T14:00:28;1.60;;;1.00;;
15482;SDS011;7843;50.330;7.312;2024-02-26T14:02:58;1.85;;;1.10;;
15482;SDS011;7843;50.330;7.312;2024-02-26T14:05:25;1.50;;;0.98;;
15482;SDS011;7843;50.330;7.312;2024-02-26T14:07:52;4.50;;;1.53;;
15482;SDS011;7843;50.330;7.312;2024-02-26T14:10:19;0.90;;;0.83;;
15482;SDS011;7843;50.330;7.312;2024-02-26T14:12:46;1.80;;;1.20;;
15482;SDS011;7843;50.330;7.312;2024-02-26T14:15:13;3.03;;;1.27;;
15482;SDS011;7843;50.330;7.312;2024-02-26T14:17:39;1.00;;;0.90;;
15482;SDS011;7843;50.330;7.312;2024-02-26T14:20:06;2.20;;;1.20;;
15482;SDS011;7843;50.330;7.312;2024-02-26T14:22:35;1.50;;;1.20;;
15482;SDS011;7843;50.330;7.312;2024-02-26T14:25:02;2.42;;;0.93;;
15482;SDS011;7843;50.330;7.312;2024-02-26T14:27:29;1.10;;;0.90;;
15482;SDS011;7843;50.330;7.312;2024-02-26T14:29:56;1.75;;;1.15;;
15482;SDS011;7843;50.330;7.312;2024-02-26T14:32:22;2.67;;;1.40;;
15482;SDS011;7843;50.330;7.312;2024-02-26T14:34:49;1.45;;;0.90;;
15482;SDS011;7843;50.330;7.312;2024-02-26T14:37:16;2.33;;;1.40;;
15482;SDS011;7843;50.330;7.312;2024-02-26T14:39:42;5.10;;;1.70;;
15482;SDS011;7843;50.330;7.312;2024-02-26T14:42:09;1.90;;;1.20;;
15482;SDS011;7843;50.330;7.312;2024-02-26T14:44:36;5.45;;;1.15;;
15482;SDS011;7843;50.330;7.312;2024-02-26T14:47:02;3.20;;;1.35;;
15482;SDS011;7843;50.330;7.312;2024-02-26T14:49:29;1.92;;;1.45;;
15482;SDS011;7843;50.330;7.312;2024-02-26T14:51:57;3.67;;;1.58;;
15482;SDS011;7843;50.330;7.312;2024-02-26T14:54:24;0.98;;;0.93;;
15482;SDS011;7843;50.330;7.312;2024-02-26T14:56:51;1.67;;;1.17;;
15482;SDS011;7843;50.330;7.312;2024-02-26T14:59:18;2.38;;;1.02;;
15482;SDS011;7843;50.330;7.312;2024-02-26T15:01:44;1.13;;;0.93;;
15482;SDS011;7843;50.330;7.312;2024-02-26T15:04:12;1.35;;;0.73;;
15482;SDS011;7843;50.330;7.312;2024-02-26T15:06:39;1.73;;;1.33;;
15482;SDS011;7843;50.330;7.312;2024-02-26T15:09:06;1.10;;;0.95;;
15482;SDS011;7843;50.330;7.312;2024-02-26T15:11:33;2.28;;;1.58;;